Time;durP1;ratioP1;P1;durP2;ratioP2;P2;SDS_P1;SDS_P2;PMS_P1;PMS_P2;Temp;Humidity;BMP_temperature;BMP_pressure;BME280_temperature;BME280_humidity;BME280_pressure;Samples;Min_cycle;Max_cycle;Signal;HPM_P1;HPM_P2
2021/04/25 00:00:29;;;;;;;15.40;6.85;;;7.60;83.50;;;;;;5032827;28;20040;-60
2021/04/25 00:02:55;;;;;;;19.02;6.97;;;7.60;83.40;;;;;;5041987;28;20045;-60
2021/04/25 00:05:22;;;;;;;19.17;7.32;;;7.50;82.60;;;;;;5027197;28;20068;-60
2021/04/25 00:07:49;;;;;;;21.05;8.98;;;7.50;84.50;;;;;;5031600;28;20034;-61
2021/04/25 00:10:17;;;;;;;23.73;9.48;;;7.70;83.70;;;;;;5018873;28;20425;-60
2021/04/25 00:12:45;;;;;;;18.50;7.97;;;7.60;84.30;;;;;;5034446;28;20079;-60
2021/04/25 00:15:18;;;;;;;17.15;7.72;;;7.50;85.00;;;;;;5031728;28;20466;-60
2021/04/25 00:17:45;;;;;;;19.92;8.07;;;7.70;83.60;;;;;;5033207;28;20042;-60
2021/04/25 00:20:12;;;;;;;19.23;7.60;;;7.60;84.30;;;;;;5030327;28;20038;-60
2021/04/25 00:22:39;;;;;;;18.30;8.05;;;7.60;83.90;;;;;;5030668;28;20095;-61
2021/04/25 00:25:07;;;;;;;15.95;7.13;;;7.70;84.30;;;;;;5024571;28;20037;-60
2021/04/25 00:27:34;;;;;;;18.10;8.70;;;7.50;83.90;;;;;;5032833;28;20044;-60
2021/04/25 00:30:01;;;;;;;18.77;7.70;;;7.60;83.50;;;;;;5032142;28;20041;-60
2021/04/25 00:32:28;;;;;;;21.13;7.85;;;7.50;82.60;;;;;;5029565;28;20100;-60
2021/04/25 00:34:54;;;;;;;15.70;7.03;;;7.60;81.70;;;;;;5035345;28;20053;-60
2021/04/25 00:37:21;;;;;;;11.60;5.60;;;7.80;81.90;;;;;;5032355;28;20470;-60
2021/04/25 00:39:47;;;;;;;13.52;5.80;;;7.70;81.70;;;;;;5030660;28;20044;-61
2021/04/25 00:42:15;;;;;;;15.82;6.82;;;7.70;82.50;;;;;;5032136;28;20045;-60
2021/04/25 00:44:44;;;;;;;17.52;6.93;;;7.50;82.90;;;;;;5034476;28;20052;-60
2021/04/25 00:47:11;;;;;;;12.93;5.50;;;7.40;84.10;;;;;;5037988;28;20041;-60
2021/04/25 00:49:38;;;;;;;18.08;6.38;;;7.30;84.30;;;;;;5030155;28;20049;-60
2021/04/25 00:52:06;;;;;;;15.73;6.07;;;7.20;86.00;;;;;;5035747;28;20073;-60
2021/04/25 00:54:33;;;;;;;17.60;7.63;;;7.40;85.70;;;;;;5033223;28;20504;-60
2021/04/25 00:57:00;;;;;;;14.93;7.50;;;7.30;84.90;;;;;;5031077;28;20053;-60
2021/04/25 00:59:27;;;;;;;16.85;7.80;;;7.40;85.60;;;;;;5029253;28;20048;-60
2021/04/25 01:01:54;;;;;;;20.63;8.30;;;7.60;84.50;;;;;;5029173;28;20154;-60
2021/04/25 01:04:21;;;;;;;18.70;8.02;;;7.70;82.20;;;;;;5031880;28;20484;-60
2021/04/25 01:06:47;;;;;;;18.75;8.38;;;7.60;81.70;;;;;;5031069;28;20037;-60
2021/04/25 01:09:14;;;;;;;18.98;8.60;;;7.50;82.50;;;;;;5033952;28;20135;-60
2021/04/25 01:11:41;;;;;;;20.30;8.52;;;7.60;82.30;;;;;;5032071;28;20049;-60
2021/04/25 01:14:08;;;;;;;20.90;9.18;;;7.30;82.50;;;;;;5032244;28;20049;-60
2021/04/25 01:16:35;;;;;;;19.83;9.05;;;7.20;83.80;;;;;;5030882;28;20377;-60
2021/04/25 01:19:02;;;;;;;22.63;9.73;;;7.10;84.40;;;;;;5032126;28;20048;-60
2021/04/25 01:21:28;;;;;;;24.58;9.65;;;7.10;83.70;;;;;;5021530;28;20117;-60
2021/04/25 01:23:55;;;;;;;22.17;10.63;;;7.10;85.90;;;;;;5025905;28;20034;-60
2021/04/25 01:26:22;;;;;;;24.45;10.90;;;7.00;85.90;;;;;;5032803;28;20467;-60
2021/04/25 01:28:49;;;;;;;27.83;11.57;;;7.00;85.80;;;;;;5031020;28;20659;-60
2021/04/25 01:31:15;;;;;;;26.40;10.35;;;7.10;86.10;;;;;;5026260;28;20053;-61
2021/04/25 01:33:43;;;;;;;22.55;11.13;;;7.00;85.30;;;;;;5029193;28;20080;-60
2021/04/25 01:36:09;;;;;;;28.75;11.45;;;6.80;86.70;;;;;;5032571;28;20392;-60
2021/04/25 01:38:36;;;;;;;21.70;10.20;;;7.00;87.80;;;;;;5031557;28;20049;-60
2021/04/25 01:41:02;;;;;;;27.35;10.10;;;6.80;86.90;;;;;;5031641;28;20041;-61
2021/04/25 01:43:29;;;;;;;24.73;9.20;;;6.90;88.80;;;;;;5037982;28;20369;-61
2021/04/25 01:45:56;;;;;;;24.23;9.50;;;6.80;87.60;;;;;;5033213;28;20042;-60
2021/04/25 01:48:23;;;;;;;27.20;9.20;;;6.70;87.00;;;;;;5028806;28;20103;-60
2021/04/25 01:50:49;;;;;;;19.23;9.20;;;6.70;89.10;;;;;;5028256;28;20053;-60
2021/04/25 01:53:16;;;;;;;22.63;9.27;;;6.60;90.20;;;;;;5029121;28;20041;-60
2021/04/25 01:55:43;;;;;;;20.95;8.55;;;6.50;88.10;;;;;;5030786;28;20041;-60
2021/04/25 01:58:10;;;;;;;18.67;9.05;;;6.40;89.10;;;;;;5030047;28;20041;-60
2021/04/25 02:00:41;;;;;;;21.90;8.85;;;6.60;90.40;;;;;;5013839;28;20103;-60
2021/04/25 02:03:09;;;;;;;18.38;8.05;;;6.60;90.20;;;;;;5029747;28;20103;-60
2021/04/25 02:05:37;;;;;;;21.73;9.23;;;6.50;90.20;;;;;;5031664;28;20041;-60
2021/04/25 02:08:06;;;;;;;26.05;9.23;;;6.40;90.20;;;;;;5033945;28;20037;-60
2021/04/25 02:10:32;;;;;;;19.00;8.50;;;6.40;90.10;;;;;;5029958;28;20408;-60
2021/04/25 02:12:59;;;;;;;22.42;9.95;;;6.40;89.80;;;;;;5030215;28;20155;-60
2021/04/25 02:15:27;;;;;;;18.00;8.60;;;6.50;90.20;;;;;;5030990;28;20123;-60
2021/04/25 02:17:53;;;;;;;21.50;8.70;;;6.40;90.00;;;;;;5029043;28;20468;-60
2021/04/25 02:20:21;;;;;;;27.45;9.45;;;6.30;90.70;;;;;;5031753;28;20116;-60
2021/04/25 02:22:48;;;;;;;21.05;9.25;;;6.30;90.40;;;;;;5029770;28;20099;-60
2021/04/25 02:25:16;;;;;;;18.90;8.82;;;6.30;90.60;;;;;;5027127;28;20045;-60
2021/04/25 02:27:44;;;;;;;23.33;9.30;;;6.30;90.40;;;;;;5026254;28;20042;-60
2021/04/25 02:30:14;;;;;;;24.60;9.00;;;6.30;91.20;;;;;;5027215;28;20048;-60
2021/04/25 02:32:40;;;;;;;20.77;8.95;;;6.50;90.70;;;;;;5030841;28;20079;-60
2021/04/25 02:35:09;;;;;;;20.42;9.25;;;6.70;90.40;;;;;;5029995;28;20494;-60
2021/04/25 02:37:36;;;;;;;21.27;8.38;;;6.60;89.40;;;;;;5030192;28;20068;-60
2021/04/25 02:40:13;;;;;;;17.98;8.90;;;6.60;88.20;;;;;;5031157;28;20046;-60
2021/04/25 02:42:42;;;;;;;20.88;9.07;;;6.70;87.60;;;;;;5033756;28;20485;-60
2021/04/25 02:45:15;;;;;;;20.88;8.48;;;6.70;88.00;;;;;;5031399;28;20095;-60
2021/04/25 02:47:46;;;;;;;20.00;8.13;;;6.70;86.90;;;;;;5033105;28;20033;-60
2021/04/25 02:50:15;;;;;;;20.92;9.52;;;6.50;88.00;;;;;;5030058;28;20499;-60
2021/04/25 02:52:41;;;;;;;18.17;8.95;;;6.20;87.40;;;;;;5029886;28;20084;-60
2021/04/25 02:55:09;;;;;;;21.25;8.13;;;6.00;90.10;;;;;;5028888;28;20049;-60
2021/04/25 02:57:36;;;;;;;18.95;8.45;;;6.00;90.20;;;;;;5025958;28;20060;-60
2021/04/25 03:00:08;;;;;;;17.52;7.97;;;6.00;91.40;;;;;;5027976;28;20138;-60
2021/04/25 03:02:35;;;;;;;15.50;6.72;;;6.00;90.80;;;;;;5028402;28;20041;-60
2021/04/25 03:05:03;;;;;;;19.52;8.07;;;6.00;91.20;;;;;;5029515;28;20100;-60
2021/04/25 03:07:29;;;;;;;18.77;8.77;;;6.10;91.30;;;;;;5028758;28;20499;-60
2021/04/25 03:09:56;;;;;;;21.65;8.13;;;6.00;90.90;;;;;;5028732;28;20556;-60
2021/04/25 03:12:23;;;;;;;20.63;8.48;;;6.00;90.90;;;;;;5032841;28;20041;-60
2021/04/25 03:14:49;;;;;;;18.90;8.10;;;6.00;91.30;;;;;;5029886;28;20538;-60
2021/04/25 03:17:16;;;;;;;22.52;8.55;;;6.10;91.30;;;;;;5032160;28;20045;-60
2021/04/25 03:19:43;;;;;;;21.35;8.48;;;6.10;91.40;;;;;;5030130;28;20045;-60
2021/04/25 03:22:09;;;;;;;20.00;7.85;;;6.20;91.30;;;;;;5029744;28;20042;-60
2021/04/25 03:24:36;;;;;;;19.70;7.97;;;6.10;90.70;;;;;;5027429;28;20041;-61
2021/04/25 03:27:02;;;;;;;15.77;8.13;;;5.90;91.70;;;;;;5027217;28;20107;-60
2021/04/25 03:29:29;;;;;;;20.83;8.48;;;5.70;91.50;;;;;;5031274;28;20075;-60
2021/04/25 03:31:55;;;;;;;21.25;8.07;;;5.80;91.70;;;;;;5029213;28;20049;-60
2021/04/25 03:34:22;;;;;;;22.00;8.38;;;5.80;91.80;;;;;;5021434;28;20042;-60
2021/04/25 03:36:48;;;;;;;17.10;7.93;;;5.80;91.70;;;;;;5031949;28;20049;-60
2021/04/25 03:39:15;;;;;;;18.77;8.10;;;5.80;91.90;;;;;;5023956;28;20049;-60
2021/04/25 03:41:41;;;;;;;17.35;7.43;;;5.80;92.00;;;;;;5022088;28;20047;-60
2021/04/25 03:44:09;;;;;;;17.95;7.53;;;5.90;91.50;;;;;;5032572;28;20045;-60
2021/04/25 03:46:36;;;;;;;18.05;7.63;;;5.90;91.50;;;;;;5030593;28;20095;-60
2021/04/25 03:49:04;;;;;;;22.67;8.75;;;5.80;91.70;;;;;;5007630;28;20516;-60
2021/04/25 03:51:30;;;;;;;21.42;8.18;;;5.80;91.80;;;;;;5027075;28;20060;-60
2021/04/25 03:53:57;;;;;;;21.83;8.40;;;5.70;91.70;;;;;;5026854;28;20115;-60
2021/04/25 03:56:24;;;;;;;21.23;8.90;;;5.60;91.50;;;;;;5025927;28;20044;-60
2021/04/25 03:58:50;;;;;;;25.30;9.68;;;5.50;91.20;;;;;;5028156;28;20095;-60
2021/04/25 04:01:17;;;;;;;21.25;8.40;;;5.40;92.10;;;;;;5027020;28;20052;-60
2021/04/25 04:03:44;;;;;;;22.38;9.45;;;5.40;93.00;;;;;;5027221;28;20503;-60
2021/04/25 04:06:10;;;;;;;23.40;9.57;;;5.40;91.90;;;;;;5029149;28;20038;-60
2021/04/25 04:08:37;;;;;;;19.13;9.45;;;5.50;92.10;;;;;;5027324;28;20054;-60
2021/04/25 04:11:04;;;;;;;20.00;8.35;;;5.60;91.90;;;;;;5029188;28;20084;-60
2021/04/25 04:13:31;;;;;;;22.10;10.07;;;5.70;91.90;;;;;;5028114;28;20034;-60
2021/04/25 04:15:57;;;;;;;19.95;9.18;;;5.80;91.80;;;;;;5027749;28;20107;-60
2021/04/25 04:18:24;;;;;;;28.30;11.17;;;5.80;91.70;;;;;;5029637;28;20049;-60
2021/04/25 04:20:50;;;;;;;25.15;11.38;;;5.80;91.40;;;;;;5028749;28;20044;-60
2021/04/25 04:23:17;;;;;;;27.10;11.38;;;5.90;91.40;;;;;;5025623;28;20041;-60
2021/04/25 04:25:44;;;;;;;27.77;11.07;;;6.00;91.30;;;;;;5010581;28;20046;-60
2021/04/25 04:28:10;;;;;;;28.70;11.75;;;5.90;91.40;;;;;;5031511;28;20485;-61
2021/04/25 04:30:37;;;;;;;29.77;12.57;;;6.20;90.90;;;;;;5029729;28;20392;-60
2021/04/25 04:33:03;;;;;;;33.67;13.23;;;6.40;90.70;;;;;;5022637;28;20045;-60
2021/04/25 04:35:30;;;;;;;31.67;12.43;;;6.50;90.40;;;;;;5027129;28;20472;-60
2021/04/25 04:37:57;;;;;;;29.00;12.55;;;6.50;90.50;;;;;;5022624;28;20124;-60
2021/04/25 04:40:24;;;;;;;28.38;12.60;;;6.70;90.20;;;;;;5019413;28;20397;-60
2021/04/25 04:42:50;;;;;;;31.83;12.40;;;6.60;90.30;;;;;;5025488;28;20045;-60
2021/04/25 04:45:17;;;;;;;33.60;12.85;;;6.70;90.20;;;;;;5030122;28;20045;-60
2021/04/25 04:47:46;;;;;;;25.50;11.68;;;6.70;90.20;;;;;;5039739;28;20127;-60
2021/04/25 04:50:16;;;;;;;24.65;10.57;;;6.90;90.50;;;;;;5032132;28;20069;-60
2021/04/25 04:52:44;;;;;;;27.48;11.00;;;7.10;89.80;;;;;;5026211;28;20615;-60
2021/04/25 04:55:12;;;;;;;24.75;10.90;;;7.30;89.20;;;;;;5029592;28;20068;-60
2021/04/25 04:57:38;;;;;;;29.38;11.52;;;7.50;88.70;;;;;;5031244;28;20067;-60
2021/04/25 05:00:06;;;;;;;30.45;10.75;;;7.60;87.90;;;;;;5029502;28;20041;-60
2021/04/25 05:02:32;;;;;;;27.02;11.02;;;7.70;86.80;;;;;;5023728;28;20053;-60
2021/04/25 05:05:00;;;;;;;27.00;10.93;;;7.80;85.20;;;;;;5031016;28;20400;-60
2021/04/25 05:07:26;;;;;;;30.35;11.48;;;7.70;85.30;;;;;;5029815;28;20045;-60
2021/04/25 05:09:53;;;;;;;25.75;11.45;;;7.70;85.80;;;;;;5031307;28;20044;-60
2021/04/25 05:12:19;;;;;;;28.10;11.40;;;7.80;85.30;;;;;;5032197;28;20384;-60
2021/04/25 05:14:46;;;;;;;27.42;10.85;;;8.00;84.20;;;;;;5033473;28;20496;-60
2021/04/25 05:17:12;;;;;;;29.92;12.52;;;8.10;83.60;;;;;;5019048;28;20045;-60
2021/04/25 05:19:39;;;;;;;23.23;10.38;;;7.90;84.70;;;;;;5030369;28;20045;-60
2021/04/25 05:22:05;;;;;;;21.20;9.50;;;8.00;83.30;;;;;;5030285;28;20045;-60
2021/04/25 05:24:32;;;;;;;23.23;9.45;;;8.00;83.70;;;;;;5030204;28;20530;-60
2021/04/25 05:26:58;;;;;;;21.05;8.85;;;8.00;83.20;;;;;;5032109;28;20045;-60
2021/04/25 05:29:26;;;;;;;23.33;9.10;;;8.00;83.70;;;;;;5033855;28;20041;-60
2021/04/25 05:31:52;;;;;;;22.13;9.50;;;8.10;82.90;;;;;;5021780;28;20053;-61
2021/04/25 05:34:19;;;;;;;21.52;8.65;;;8.30;82.10;;;;;;5028078;28;20068;-60
2021/04/25 05:36:46;;;;;;;23.30;9.00;;;8.30;79.70;;;;;;5032292;28;20061;-61
2021/04/25 05:39:13;;;;;;;20.88;9.23;;;8.50;79.00;;;;;;5025005;28;20400;-60
2021/04/25 05:41:39;;;;;;;24.50;10.10;;;8.60;79.90;;;;;;5029555;28;20041;-60
2021/04/25 05:44:06;;;;;;;22.08;9.48;;;8.50;79.10;;;;;;5031996;28;20042;-61
2021/04/25 05:46:36;;;;;;;24.13;8.93;;;8.60;79.30;;;;;;5036792;28;20052;-60
2021/04/25 05:49:03;;;;;;;22.45;10.43;;;8.80;78.60;;;;;;5028312;28;20069;-60
2021/04/25 05:51:30;;;;;;;22.45;9.43;;;8.90;79.00;;;;;;5020359;28;20050;-60
2021/04/25 05:53:57;;;;;;;21.83;8.85;;;9.00;77.00;;;;;;5029563;28;20463;-60
2021/04/25 05:56:23;;;;;;;23.02;9.02;;;9.10;75.50;;;;;;5030755;28;20563;-60
2021/04/25 05:58:50;;;;;;;21.92;9.20;;;9.20;75.10;;;;;;5028222;28;20103;-61
2021/04/25 06:01:17;;;;;;;20.90;8.05;;;9.20;74.90;;;;;;5029109;28;20373;-61
2021/04/25 06:03:44;;;;;;;17.63;7.43;;;9.40;72.70;;;;;;5030642;28;20041;-60
2021/04/25 06:06:10;;;;;;;22.25;7.95;;;9.50;72.20;;;;;;5029306;28;20124;-60
2021/04/25 06:08:39;;;;;;;19.75;8.43;;;9.60;72.00;;;;;;5030878;28;20381;-60
2021/04/25 06:11:06;;;;;;;20.58;8.13;;;9.60;72.60;;;;;;5031705;28;20033;-61
2021/04/25 06:13:32;;;;;;;21.15;7.63;;;9.70;72.90;;;;;;5032361;28;20049;-61
2021/04/25 06:15:59;;;;;;;20.50;7.90;;;9.70;73.80;;;;;;5030354;28;20385;-61
2021/04/25 06:18:26;;;;;;;17.45;8.18;;;9.70;73.60;;;;;;5030173;28;20742;-61
2021/04/25 06:20:53;;;;;;;22.65;8.82;;;9.80;73.40;;;;;;5032810;28;20099;-60
2021/04/25 06:23:21;;;;;;;19.08;8.63;;;9.90;74.30;;;;;;5028450;28;20069;-61
2021/04/25 06:25:47;;;;;;;23.63;8.52;;;9.90;74.50;;;;;;5027533;28;20045;-61
2021/04/25 06:28:15;;;;;;;21.08;8.75;;;10.00;73.90;;;;;;5028586;28;20369;-61
2021/04/25 06:30:42;;;;;;;23.25;9.40;;;10.00;74.90;;;;;;5028667;28;20093;-61
2021/04/25 06:33:08;;;;;;;18.55;8.90;;;10.20;74.70;;;;;;5029529;28;20050;-61
2021/04/25 06:35:35;;;;;;;20.27;9.45;;;10.10;71.90;;;;;;5030025;28;20095;-60
2021/04/25 06:38:01;;;;;;;18.45;8.52;;;10.10;72.40;;;;;;5027824;28;20061;-60
2021/04/25 06:40:28;;;;;;;19.17;8.55;;;10.10;73.50;;;;;;5027612;28;20045;-61
2021/04/25 06:42:54;;;;;;;20.17;8.15;;;10.20;72.80;;;;;;5023610;28;20045;-61
2021/04/25 06:45:23;;;;;;;18.55;9.00;;;10.40;73.60;;;;;;5029116;28;20041;-61
2021/04/25 06:47:50;;;;;;;18.65;7.97;;;10.40;73.20;;;;;;5018537;28;20038;-60
2021/04/25 06:50:17;;;;;;;18.50;8.18;;;10.60;73.90;;;;;;5025126;28;20033;-61
2021/04/25 06:52:46;;;;;;;21.92;9.48;;;10.60;73.60;;;;;;5023645;28;20054;-60
2021/04/25 06:55:15;;;;;;;22.75;8.13;;;10.80;74.30;;;;;;5029887;28;20372;-60
2021/04/25 06:57:44;;;;;;;23.17;9.02;;;10.90;73.30;;;;;;5026994;28;20152;-60
2021/04/25 07:00:11;;;;;;;17.95;7.22;;;11.00;71.50;;;;;;5029326;28;20046;-60
2021/04/25 07:02:38;;;;;;;19.73;8.20;;;11.00;70.00;;;;;;5030811;28;20049;-60
2021/04/25 07:05:06;;;;;;;20.10;8.35;;;11.10;70.80;;;;;;5029139;28;20033;-60
2021/04/25 07:07:33;;;;;;;18.08;8.52;;;11.20;71.30;;;;;;5026172;28;20041;-60
2021/04/25 07:10:01;;;;;;;17.20;7.82;;;11.30;71.80;;;;;;5026414;28;20500;-60
2021/04/25 07:12:28;;;;;;;19.60;7.68;;;11.40;70.20;;;;;;5031048;28;20115;-60
2021/04/25 07:14:56;;;;;;;15.88;7.10;;;11.50;70.30;;;;;;5028988;28;20099;-61
2021/04/25 07:17:26;;;;;;;16.88;7.00;;;11.60;70.40;;;;;;5019466;28;20503;-61
2021/04/25 07:19:53;;;;;;;20.15;7.95;;;11.70;69.60;;;;;;5025908;28;20837;-60
2021/04/25 07:22:20;;;;;;;18.65;7.63;;;11.80;69.00;;;;;;5026262;28;20042;-60
2021/04/25 07:24:46;;;;;;;17.25;7.30;;;11.80;69.20;;;;;;5026348;28;20377;-60
2021/04/25 07:27:13;;;;;;;17.90;6.88;;;12.00;67.90;;;;;;5028439;28;20045;-60
2021/04/25 07:29:39;;;;;;;19.65;6.70;;;12.10;66.60;;;;;;5025938;28;20037;-61
2021/04/25 07:32:06;;;;;;;18.23;6.88;;;12.20;67.40;;;;;;5028688;28;20045;-61
2021/04/25 07:34:34;;;;;;;17.10;6.50;;;12.30;65.40;;;;;;5023806;28;20483;-61
2021/04/25 07:37:04;;;;;;;15.65;6.65;;;12.40;65.00;;;;;;5024515;28;20061;-61
2021/04/25 07:39:35;;;;;;;14.93;6.30;;;12.50;65.20;;;;;;5029113;28;20049;-61
2021/04/25 07:42:03;;;;;;;17.08;6.35;;;12.60;64.70;;;;;;5027865;28;20125;-61
2021/04/25 07:44:29;;;;;;;16.75;7.55;;;12.80;63.30;;;;;;5027258;28;20041;-61
2021/04/25 07:46:56;;;;;;;18.33;6.30;;;13.00;63.60;;;;;;5025566;28;20033;-61
2021/04/25 07:49:23;;;;;;;16.23;5.85;;;13.10;61.90;;;;;;5033512;28;20045;-61
2021/04/25 07:51:50;;;;;;;13.30;6.57;;;13.20;61.50;;;;;;5022932;28;20388;-61
2021/04/25 07:54:17;;;;;;;18.80;7.32;;;13.30;62.10;;;;;;5024163;28;20046;-61
2021/04/25 07:56:44;;;;;;;17.63;6.85;;;13.40;60.70;;;;;;5027812;28;20033;-60
2021/04/25 07:59:10;;;;;;;14.70;6.22;;;13.50;61.30;;;;;;5026662;28;20061;-60
2021/04/25 08:01:37;;;;;;;16.77;6.35;;;13.60;61.50;;;;;;5010785;28;20133;-60
2021/04/25 08:04:04;;;;;;;20.98;6.40;;;13.70;61.10;;;;;;5025104;28;20124;-60
2021/04/25 08:06:31;;;;;;;13.60;6.05;;;13.80;60.20;;;;;;5027197;28;20373;-61
2021/04/25 08:08:57;;;;;;;15.35;6.25;;;13.90;59.90;;;;;;5041385;28;20044;-60
2021/04/25 08:11:24;;;;;;;16.83;5.53;;;13.90;58.30;;;;;;5025415;28;20064;-60
2021/04/25 08:13:51;;;;;;;14.75;6.10;;;13.90;59.00;;;;;;5024811;28;20042;-60
2021/04/25 08:16:18;;;;;;;13.60;5.03;;;13.90;58.80;;;;;;5028166;28;20099;-61
2021/04/25 08:18:44;;;;;;;15.05;5.38;;;13.90;56.80;;;;;;5021527;28;20076;-61
2021/04/25 08:21:11;;;;;;;15.43;6.00;;;14.00;55.80;;;;;;5021994;28;20088;-61
2021/04/25 08:23:38;;;;;;;15.20;5.40;;;14.10;54.80;;;;;;5028711;28;20048;-61
2021/04/25 08:26:05;;;;;;;17.67;5.75;;;14.10;55.00;;;;;;5029284;28;20041;-61
2021/04/25 08:28:32;;;;;;;13.82;5.65;;;14.30;55.20;;;;;;5028139;28;20046;-63
2021/04/25 08:30:58;;;;;;;17.65;6.32;;;14.40;56.30;;;;;;5030614;28;20045;-62
2021/04/25 08:33:26;;;;;;;13.43;5.22;;;14.60;55.30;;;;;;5031744;28;20452;-62
2021/04/25 08:35:53;;;;;;;17.13;6.80;;;14.70;55.00;;;;;;5013777;28;20045;-62
2021/04/25 08:38:20;;;;;;;15.35;5.78;;;14.80;55.50;;;;;;5031221;28;20057;-62
2021/04/25 08:40:47;;;;;;;20.67;7.13;;;15.00;55.50;;;;;;5032516;28;20046;-62
2021/04/25 08:43:14;;;;;;;19.35;6.90;;;15.00;55.00;;;;;;5024880;28;20095;-62
2021/04/25 08:45:45;;;;;;;14.48;5.60;;;15.10;54.30;;;;;;5028307;28;20053;-62
2021/04/25 08:48:13;;;;;;;19.15;6.90;;;15.20;54.60;;;;;;5033030;28;20045;-62
2021/04/25 08:50:41;;;;;;;17.20;6.32;;;15.30;55.80;;;;;;5027312;28;20194;-63
2021/04/25 08:53:10;;;;;;;16.25;6.20;;;15.30;54.40;;;;;;5029624;28;20046;-62
2021/04/25 08:55:37;;;;;;;17.95;6.07;;;15.50;55.00;;;;;;5014922;28;20049;-63
2021/04/25 08:58:07;;;;;;;14.40;5.45;;;15.50;56.40;;;;;;5024657;28;20049;-62
2021/04/25 09:00:35;;;;;;;19.05;7.25;;;15.50;54.60;;;;;;5029431;28;20053;-62
2021/04/25 09:03:02;;;;;;;17.75;6.15;;;15.60;53.70;;;;;;5028368;28;20144;-62
2021/04/25 09:05:28;;;;;;;16.17;6.07;;;15.70;53.80;;;;;;5028694;28;20056;-62
2021/04/25 09:08:00;;;;;;;19.30;6.65;;;15.70;53.40;;;;;;5032937;28;20451;-63
2021/04/25 09:10:39;;;;;;;14.77;5.83;;;15.80;54.40;;;;;;5026841;28;20396;-63
2021/04/25 09:13:32;;;;;;;15.65;6.13;;;15.80;53.50;;;;;;5023229;28;21032;-63
2021/04/25 09:16:09;;;;;;;17.73;5.95;;;15.80;54.10;;;;;;5031968;28;20080;-61
2021/04/25 09:18:36;;;;;;;15.75;5.50;;;15.80;54.00;;;;;;5010539;28;20060;-61
2021/04/25 09:21:11;;;;;;;18.33;6.38;;;15.80;54.10;;;;;;5031099;28;20041;-63
2021/04/25 09:23:40;;;;;;;16.73;6.55;;;15.80;54.00;;;;;;5026582;28;20033;-62
2021/04/25 09:26:09;;;;;;;15.18;6.13;;;15.80;55.20;;;;;;5020562;28;20046;-62
2021/04/25 09:28:38;;;;;;;14.68;6.18;;;15.90;54.80;;;;;;5028610;28;20123;-62
2021/04/25 09:31:14;;;;;;;16.42;6.63;;;15.80;53.70;;;;;;5030894;28;20483;-61
2021/04/25 09:33:58;;;;;;;14.65;5.40;;;15.90;54.60;;;;;;5034617;28;20559;-62
2021/04/25 09:36:30;;;;;;;18.63;6.60;;;16.10;53.30;;;;;;5027945;28;20045;-62
2021/04/25 09:39:15;;;;;;;16.08;6.20;;;16.30;54.00;;;;;;5027157;28;20061;-62
2021/04/25 09:41:42;;;;;;;20.95;7.38;;;16.50;53.20;;;;;;5029758;28;20786;-62
2021/04/25 09:44:37;;;;;;;15.98;5.70;;;16.70;53.10;;;;;;5020923;28;20049;-63
2021/04/25 09:47:05;;;;;;;18.13;5.82;;;16.90;52.50;;;;;;5037807;28;20399;-62
2021/04/25 09:49:49;;;;;;;17.95;6.13;;;17.00;51.30;;;;;;5025699;28;20805;-63
2021/04/25 09:52:35;;;;;;;14.52;5.32;;;17.00;50.50;;;;;;5025862;28;20072;-62
2021/04/25 09:55:16;;;;;;;14.50;5.53;;;17.20;51.30;;;;;;4996385;28;20046;-62
2021/04/25 09:57:46;;;;;;;17.65;6.10;;;17.20;50.10;;;;;;5020731;28;20041;-61
2021/04/25 10:00:14;;;;;;;14.05;5.00;;;17.10;50.90;;;;;;5026907;28;20090;-61
2021/04/25 10:03:04;;;;;;;16.55;5.03;;;17.00;51.50;;;;;;5020389;28;20044;-61
2021/04/25 10:05:32;;;;;;;11.82;4.30;;;17.00;51.30;;;;;;5021765;28;20498;-61
2021/04/25 10:07:59;;;;;;;11.75;4.15;;;17.00;51.00;;;;;;5026110;28;20034;-62
2021/04/25 10:10:27;;;;;;;16.00;5.22;;;17.00;50.70;;;;;;5022052;28;20054;-62
2021/04/25 10:12:55;;;;;;;12.93;4.40;;;16.90;50.20;;;;;;5022063;28;20062;-62
2021/04/25 10:15:22;;;;;;;13.20;4.00;;;17.10;50.80;;;;;;5027551;28;20060;-62
2021/04/25 10:17:51;;;;;;;17.42;5.93;;;17.20;52.40;;;;;;5029020;28;20045;-61
2021/04/25 10:20:20;;;;;;;19.95;5.32;;;17.30;51.00;;;;;;5024353;28;20052;-64
2021/04/25 10:22:49;;;;;;;14.38;5.30;;;17.60;51.80;;;;;;5003933;28;20041;-64
2021/04/25 10:25:19;;;;;;;15.95;6.00;;;17.80;50.90;;;;;;5023949;28;20050;-64
2021/04/25 10:27:55;;;;;;;15.98;5.55;;;18.10;51.10;;;;;;5024506;28;20372;-64
2021/04/25 10:30:28;;;;;;;14.77;5.40;;;18.00;50.90;;;;;;5007009;28;20061;-64
2021/04/25 10:32:57;;;;;;;10.88;3.85;;;18.10;51.50;;;;;;5020687;28;20046;-64
2021/04/25 10:35:32;;;;;;;11.68;3.38;;;18.30;49.10;;;;;;5002421;28;20059;-64
2021/04/25 10:37:59;;;;;;;19.08;4.68;;;18.20;47.80;;;;;;5025558;28;20500;-64
2021/04/25 10:40:40;;;;;;;12.55;4.32;;;18.30;49.10;;;;;;5028818;28;20044;-64
2021/04/25 10:43:11;;;;;;;16.10;5.07;;;18.40;48.20;;;;;;5027152;28;20046;-64
2021/04/25 10:45:57;;;;;;;19.77;5.65;;;18.40;47.50;;;;;;5034829;28;20041;-64
2021/04/25 10:48:27;;;;;;;11.25;4.32;;;18.40;47.60;;;;;;5031089;28;20041;-64
2021/04/25 10:51:13;;;;;;;12.93;4.55;;;18.30;47.50;;;;;;5027765;28;20053;-64
2021/04/25 10:53:44;;;;;;;14.82;5.00;;;18.40;48.20;;;;;;5026918;28;20040;-64
2021/04/25 10:56:15;;;;;;;13.93;4.45;;;18.40;47.10;;;;;;5024126;28;20068;-64
2021/04/25 10:58:43;;;;;;;13.05;4.25;;;18.40;46.40;;;;;;5024881;28;20046;-65
2021/04/25 11:01:35;;;;;;;8.73;3.33;;;18.50;46.70;;;;;;5030692;28;20041;-65
2021/04/25 11:04:02;;;;;;;11.02;3.90;;;18.60;47.00;;;;;;5027546;28;20038;-64
2021/04/25 11:06:29;;;;;;;9.90;3.72;;;18.70;46.90;;;;;;5024360;28;20156;-64
2021/04/25 11:08:56;;;;;;;8.40;4.20;;;18.80;46.50;;;;;;5024678;28;20041;-64
2021/04/25 11:11:30;;;;;;;9.70;3.20;;;18.80;46.40;;;;;;5029530;28;20132;-63
2021/04/25 11:13:57;;;;;;;13.65;4.95;;;18.70;47.50;;;;;;5028366;28;20472;-63
2021/04/25 11:16:24;;;;;;;10.77;4.13;;;18.50;46.20;;;;;;5012647;28;20053;-64
2021/04/25 11:19:12;;;;;;;8.23;3.72;;;18.50;46.90;;;;;;5006710;28;20045;-64
2021/04/25 11:21:47;;;;;;;10.68;4.10;;;18.50;47.10;;;;;;5034678;28;20068;-64
2021/04/25 11:24:13;;;;;;;9.95;3.20;;;18.50;47.00;;;;;;5019096;28;20049;-64
2021/04/25 11:26:44;;;;;;;11.23;3.88;;;18.50;48.50;;;;;;5023619;28;20476;-63
2021/04/25 11:29:23;;;;;;;13.30;3.80;;;18.60;47.50;;;;;;5023130;28;20533;-63
2021/04/25 11:31:52;;;;;;;12.10;4.18;;;18.90;48.10;;;;;;5023354;28;20044;-64
2021/04/25 11:34:29;;;;;;;11.68;3.90;;;18.90;45.30;;;;;;5030446;28;20060;-64
2021/04/25 11:37:06;;;;;;;12.23;5.30;;;19.00;47.00;;;;;;5025877;28;20045;-65
2021/04/25 11:39:45;;;;;;;17.05;4.90;;;19.30;45.30;;;;;;5036563;28;20037;-65
2021/04/25 11:42:24;;;;;;;8.00;3.25;;;19.40;45.00;;;;;;5031332;28;20045;-66
2021/04/25 11:44:51;;;;;;;10.43;4.25;;;19.50;44.70;;;;;;5035071;28;20041;-66
2021/04/25 11:47:18;;;;;;;8.80;3.88;;;19.40;44.10;;;;;;5032015;28;20554;-65
2021/04/25 11:49:47;;;;;;;11.60;4.07;;;19.50;44.80;;;;;;5028290;28;20042;-65
2021/04/25 11:52:19;;;;;;;9.25;4.40;;;19.50;45.10;;;;;;5032378;28;20049;-65
2021/04/25 11:54:55;;;;;;;11.63;4.70;;;19.70;44.30;;;;;;5032288;28;20050;-65
2021/04/25 11:57:23;;;;;;;11.18;4.45;;;19.60;44.90;;;;;;5019691;28;20037;-65
2021/04/25 12:00:17;;;;;;;14.07;4.63;;;19.50;46.20;;;;;;5033394;28;20033;-65
2021/04/25 12:02:49;;;;;;;10.20;4.25;;;19.30;45.90;;;;;;5024281;28;20416;-65
2021/04/25 12:05:19;;;;;;;10.48;4.15;;;19.30;46.70;;;;;;5031855;28;20069;-65
2021/04/25 12:07:57;;;;;;;8.38;3.03;;;19.60;45.60;;;;;;5024589;28;20056;-65
2021/04/25 12:10:35;;;;;;;6.97;3.47;;;19.80;44.60;;;;;;5030953;28;20049;-65
2021/04/25 12:13:10;;;;;;;8.75;3.40;;;20.20;43.70;;;;;;5037102;28;20717;-65
2021/04/25 12:16:03;;;;;;;8.60;4.18;;;20.20;43.90;;;;;;5034501;28;20052;-65
2021/04/25 12:18:38;;;;;;;11.00;4.20;;;20.00;44.10;;;;;;5034596;28;20131;-65
2021/04/25 12:21:06;;;;;;;9.57;3.08;;;19.50;44.30;;;;;;5034225;28;20044;-65
2021/04/25 12:23:35;;;;;;;8.38;2.75;;;19.70;45.90;;;;;;5031899;28;20060;-65
2021/04/25 12:26:10;;;;;;;6.65;2.60;;;20.00;42.40;;;;;;5034994;28;20044;-65
2021/04/25 12:28:44;;;;;;;9.13;3.03;;;20.00;40.90;;;;;;5026238;28;20076;-65
2021/04/25 12:31:12;;;;;;;6.72;2.28;;;20.00;40.80;;;;;;5046939;28;20045;-65
2021/04/25 12:33:47;;;;;;;6.32;2.10;;;20.20;35.30;;;;;;5027795;28;20111;-65
2021/04/25 12:36:16;;;;;;;6.68;2.65;;;20.60;37.10;;;;;;5032480;28;20051;-66
2021/04/25 12:38:53;;;;;;;5.68;2.15;;;20.90;35.70;;;;;;5031762;28;20111;-66
2021/04/25 12:41:23;;;;;;;5.90;2.55;;;21.00;35.10;;;;;;5032109;28;20045;-66
2021/04/25 12:43:51;;;;;;;7.68;3.40;;;21.00;35.70;;;;;;5022548;28;20497;-66
2021/04/25 12:46:27;;;;;;;7.05;3.20;;;20.70;36.20;;;;;;5044603;28;20058;-66
2021/04/25 12:48:56;;;;;;;6.95;3.25;;;20.80;37.20;;;;;;5020686;28;22595;-66